sensor_id;sensor_type;location;lat;lon;timestamp;P1;durP1;ratioP1;P2;durP2;ratioP2
2698;SDS011;1359;51.798;12.174;2022-07-06T00:00:51;4.43;;;2.17;;
2698;SDS011;1359;51.798;12.174;2022-07-06T00:03:17;4.37;;;2.30;;
2698;SDS011;1359;51.798;12.174;2022-07-06T00:05:42;2.40;;;2.20;;
2698;SDS011;1359;51.798;12.174;2022-07-06T00:08:07;4.10;;;2.42;;
2698;SDS011;1359;51.798;12.174;2022-07-06T00:10:32;2.53;;;2.03;;
2698;SDS011;1359;51.798;12.174;2022-07-06T00:12:57;7.60;;;2.53;;
2698;SDS011;1359;51.798;12.174;2022-07-06T00:15:22;3.22;;;2.10;;
2698;SDS011;1359;51.798;12.174;2022-07-06T00:17:48;3.10;;;1.90;;
2698;SDS011;1359;51.798;12.174;2022-07-06T00:20:13;2.50;;;2.30;;
2698;SDS011;1359;51.798;12.174;2022-07-06T00:22:38;3.73;;;2.30;;
2698;SDS011;1359;51.798;12.174;2022-07-06T00:25:03;5.20;;;2.70;;
2698;SDS011;1359;51.798;12.174;2022-07-06T00:27:28;6.13;;;2.87;;
2698;SDS011;1359;51.798;12.174;2022-07-06T00:29:54;2.67;;;2.47;;
2698;SDS011;1359;51.798;12.174;2022-07-06T00:32:19;3.75;;;3.45;;
2698;SDS011;1359;51.798;12.174;2022-07-06T00:34:44;3.33;;;2.77;;
2698;SDS011;1359;51.798;12.174;2022-07-06T00:37:09;5.22;;;2.97;;
2698;SDS011;1359;51.798;12.174;2022-07-06T00:39:34;4.80;;;3.17;;
2698;SDS011;1359;51.798;12.174;2022-07-06T00:41:59;5.63;;;3.80;;
2698;SDS011;1359;51.798;12.174;2022-07-06T00:44:25;3.55;;;3.08;;
2698;SDS011;1359;51.798;12.174;2022-07-06T00:46:50;3.43;;;3.13;;
2698;SDS011;1359;51.798;12.174;2022-07-06T00:49:15;6.13;;;3.53;;
2698;SDS011;1359;51.798;12.174;2022-07-06T00:52:00;3.00;;;2.70;;
2698;SDS011;1359;51.798;12.174;2022-07-06T00:54:26;4.10;;;3.30;;
2698;SDS011;1359;51.798;12.174;2022-07-06T00:56:51;3.30;;;3.03;;
2698;SDS011;1359;51.798;12.174;2022-07-06T00:59:17;6.83;;;2.97;;
2698;SDS011;1359;51.798;12.174;2022-07-06T01:01:42;3.67;;;3.37;;
2698;SDS011;1359;51.798;12.174;2022-07-06T01:04:07;4.83;;;3.07;;
2698;SDS011;1359;51.798;12.174;2022-07-06T01:06:32;3.63;;;2.73;;
2698;SDS011;1359;51.798;12.174;2022-07-06T01:08:58;4.32;;;3.08;;
2698;SDS011;1359;51.798;12.174;2022-07-06T01:11:24;4.00;;;3.40;;
2698;SDS011;1359;51.798;12.174;2022-07-06T01:13:49;3.00;;;2.67;;
2698;SDS011;1359;51.798;12.174;2022-07-06T01:16:15;4.00;;;3.30;;
2698;SDS011;1359;51.798;12.174;2022-07-06T01:18:40;3.80;;;2.43;;
2698;SDS011;1359;51.798;12.174;2022-07-06T01:21:06;4.30;;;2.77;;
2698;SDS011;1359;51.798;12.174;2022-07-06T01:23:32;2.97;;;2.50;;
2698;SDS011;1359;51.798;12.174;2022-07-06T01:25:57;3.70;;;2.85;;
2698;SDS011;1359;51.798;12.174;2022-07-06T01:28:22;5.30;;;3.30;;
2698;SDS011;1359;51.798;12.174;2022-07-06T01:30:47;4.57;;;3.55;;
2698;SDS011;1359;51.798;12.174;2022-07-06T01:33:13;2.67;;;2.33;;
2698;SDS011;1359;51.798;12.174;2022-07-06T01:35:38;3.47;;;3.17;;
2698;SDS011;1359;51.798;12.174;2022-07-06T01:38:04;3.30;;;2.77;;
2698;SDS011;1359;51.798;12.174;2022-07-06T01:40:29;5.05;;;2.80;;
2698;SDS011;1359;51.798;12.174;2022-07-06T01:42:54;3.17;;;2.95;;
2698;SDS011;1359;51.798;12.174;2022-07-06T01:45:19;3.00;;;2.80;;
2698;SDS011;1359;51.798;12.174;2022-07-06T01:47:45;6.73;;;3.17;;
2698;SDS011;1359;51.798;12.174;2022-07-06T01:50:10;5.47;;;3.13;;
2698;SDS011;1359;51.798;12.174;2022-07-06T01:52:35;5.50;;;2.77;;
2698;SDS011;1359;51.798;12.174;2022-07-06T01:55:00;2.80;;;2.57;;
2698;SDS011;1359;51.798;12.174;2022-07-06T01:57:25;3.35;;;2.42;;
2698;SDS011;1359;51.798;12.174;2022-07-06T01:59:50;4.17;;;2.60;;
2698;SDS011;1359;51.798;12.174;2022-07-06T02:02:16;4.20;;;2.97;;
2698;SDS011;1359;51.798;12.174;2022-07-06T02:04:42;3.33;;;2.50;;
2698;SDS011;1359;51.798;12.174;2022-07-06T02:07:07;5.43;;;2.63;;
2698;SDS011;1359;51.798;12.174;2022-07-06T02:09:32;2.33;;;2.13;;
2698;SDS011;1359;51.798;12.174;2022-07-06T02:11:57;3.50;;;2.60;;
2698;SDS011;1359;51.798;12.174;2022-07-06T02:14:22;2.60;;;2.40;;
2698;SDS011;1359;51.798;12.174;2022-07-06T02:16:47;4.18;;;2.75;;
2698;SDS011;1359;51.798;12.174;2022-07-06T02:19:13;3.17;;;2.60;;
2698;SDS011;1359;51.798;12.174;2022-07-06T02:21:38;2.55;;;2.35;;
2698;SDS011;1359;51.798;12.174;2022-07-06T02:24:03;3.13;;;2.83;;
2698;SDS011;1359;51.798;12.174;2022-07-06T02:26:28;9.33;;;2.60;;
2698;SDS011;1359;51.798;12.174;2022-07-06T02:28:53;3.85;;;2.60;;
2698;SDS011;1359;51.798;12.174;2022-07-06T02:31:18;7.93;;;4.63;;
2698;SDS011;1359;51.798;12.174;2022-07-06T02:33:44;6.33;;;2.90;;
2698;SDS011;1359;51.798;12.174;2022-07-06T02:36:09;2.67;;;2.47;;
2698;SDS011;1359;51.798;12.174;2022-07-06T02:38:34;4.00;;;3.00;;
2698;SDS011;1359;51.798;12.174;2022-07-06T02:40:59;4.03;;;2.70;;
2698;SDS011;1359;51.798;12.174;2022-07-06T02:43:24;6.00;;;2.90;;
2698;SDS011;1359;51.798;12.174;2022-07-06T02:45:49;4.43;;;2.70;;
2698;SDS011;1359;51.798;12.174;2022-07-06T02:48:15;2.87;;;2.60;;
2698;SDS011;1359;51.798;12.174;2022-07-06T02:50:40;4.28;;;2.95;;
2698;SDS011;1359;51.798;12.174;2022-07-06T02:53:05;3.60;;;2.70;;
2698;SDS011;1359;51.798;12.174;2022-07-06T02:55:30;4.03;;;2.63;;
2698;SDS011;1359;51.798;12.174;2022-07-06T02:57:55;4.37;;;3.30;;
2698;SDS011;1359;51.798;12.174;2022-07-06T03:00:20;3.00;;;2.25;;
2698;SDS011;1359;51.798;12.174;2022-07-06T03:02:46;4.60;;;2.80;;
2698;SDS011;1359;51.798;12.174;2022-07-06T03:05:11;3.05;;;2.70;;
2698;SDS011;1359;51.798;12.174;2022-07-06T03:07:36;9.37;;;3.00;;
2698;SDS011;1359;51.798;12.174;2022-07-06T03:10:01;3.20;;;2.33;;
2698;SDS011;1359;51.798;12.174;2022-07-06T03:12:26;2.97;;;2.70;;
2698;SDS011;1359;51.798;12.174;2022-07-06T03:14:52;7.70;;;2.70;;
2698;SDS011;1359;51.798;12.174;2022-07-06T03:17:17;3.97;;;2.50;;
2698;SDS011;1359;51.798;12.174;2022-07-06T03:19:42;2.77;;;2.40;;
2698;SDS011;1359;51.798;12.174;2022-07-06T03:22:07;6.25;;;3.47;;
2698;SDS011;1359;51.798;12.174;2022-07-06T03:24:32;2.55;;;2.30;;
2698;SDS011;1359;51.798;12.174;2022-07-06T03:26:57;4.10;;;2.97;;
2698;SDS011;1359;51.798;12.174;2022-07-06T03:29:22;4.22;;;2.45;;
2698;SDS011;1359;51.798;12.174;2022-07-06T03:31:48;6.55;;;2.55;;
2698;SDS011;1359;51.798;12.174;2022-07-06T03:34:13;3.13;;;2.23;;
2698;SDS011;1359;51.798;12.174;2022-07-06T03:36:38;2.57;;;2.37;;
2698;SDS011;1359;51.798;12.174;2022-07-06T03:39:03;2.30;;;2.10;;
2698;SDS011;1359;51.798;12.174;2022-07-06T03:41:29;3.23;;;2.23;;
2698;SDS011;1359;51.798;12.174;2022-07-06T03:43:54;8.48;;;3.90;;
2698;SDS011;1359;51.798;12.174;2022-07-06T03:46:19;5.03;;;2.33;;
2698;SDS011;1359;51.798;12.174;2022-07-06T03:48:44;3.30;;;2.47;;
2698;SDS011;1359;51.798;12.174;2022-07-06T03:51:09;5.63;;;2.33;;
2698;SDS011;1359;51.798;12.174;2022-07-06T03:53:36;2.80;;;2.60;;
2698;SDS011;1359;51.798;12.174;2022-07-06T03:56:01;6.17;;;4.40;;
2698;SDS011;1359;51.798;12.174;2022-07-06T03:58:45;3.10;;;2.60;;
2698;SDS011;1359;51.798;12.174;2022-07-06T04:01:10;3.15;;;2.72;;
2698;SDS011;1359;51.798;12.174;2022-07-06T04:03:35;2.83;;;2.37;;
2698;SDS011;1359;51.798;12.174;2022-07-06T04:06:00;3.30;;;3.00;;
2698;SDS011;1359;51.798;12.174;2022-07-06T04:08:25;3.80;;;2.85;;
2698;SDS011;1359;51.798;12.174;2022-07-06T04:10:50;10.18;;;3.25;;
2698;SDS011;1359;51.798;12.174;2022-07-06T04:13:16;3.70;;;2.50;;
2698;SDS011;1359;51.798;12.174;2022-07-06T04:15:41;5.17;;;2.83;;
2698;SDS011;1359;51.798;12.174;2022-07-06T04:18:06;7.47;;;3.17;;
2698;SDS011;1359;51.798;12.174;2022-07-06T04:20:31;4.93;;;2.80;;
2698;SDS011;1359;51.798;12.174;2022-07-06T04:22:56;2.53;;;2.33;;
2698;SDS011;1359;51.798;12.174;2022-07-06T04:25:22;3.30;;;2.47;;
2698;SDS011;1359;51.798;12.174;2022-07-06T04:27:47;3.17;;;1.90;;
2698;SDS011;1359;51.798;12.174;2022-07-06T04:30:12;4.90;;;2.88;;
2698;SDS011;1359;51.798;12.174;2022-07-06T04:32:37;2.73;;;2.53;;
2698;SDS011;1359;51.798;12.174;2022-07-06T04:35:03;3.50;;;2.70;;
2698;SDS011;1359;51.798;12.174;2022-07-06T04:37:28;3.73;;;1.90;;
2698;SDS011;1359;51.798;12.174;2022-07-06T04:39:53;5.20;;;2.43;;
2698;SDS011;1359;51.798;12.174;2022-07-06T04:42:18;6.20;;;2.40;;
2698;SDS011;1359;51.798;12.174;2022-07-06T04:44:44;2.60;;;2.17;;
2698;SDS011;1359;51.798;12.174;2022-07-06T04:47:09;4.20;;;2.87;;
2698;SDS011;1359;51.798;12.174;2022-07-06T04:49:34;5.20;;;2.43;;
2698;SDS011;1359;51.798;12.174;2022-07-06T04:51:59;4.28;;;2.33;;
2698;SDS011;1359;51.798;12.174;2022-07-06T04:54:24;4.38;;;2.20;;
2698;SDS011;1359;51.798;12.174;2022-07-06T04:56:49;10.80;;;2.97;;
2698;SDS011;1359;51.798;12.174;2022-07-06T04:59:15;8.47;;;1.80;;
2698;SDS011;1359;51.798;12.174;2022-07-06T05:01:40;4.13;;;2.37;;
2698;SDS011;1359;51.798;12.174;2022-07-06T05:04:08;2.57;;;2.37;;
2698;SDS011;1359;51.798;12.174;2022-07-06T05:06:33;4.13;;;2.60;;
2698;SDS011;1359;51.798;12.174;2022-07-06T05:08:58;8.20;;;2.27;;
2698;SDS011;1359;51.798;12.174;2022-07-06T05:11:27;2.20;;;2.00;;
2698;SDS011;1359;51.798;12.174;2022-07-06T05:13:52;4.10;;;2.20;;
2698;SDS011;1359;51.798;12.174;2022-07-06T05:16:17;3.70;;;2.20;;
2698;SDS011;1359;51.798;12.174;2022-07-06T05:18:43;3.83;;;1.90;;
2698;SDS011;1359;51.798;12.174;2022-07-06T05:21:08;3.78;;;2.17;;
2698;SDS011;1359;51.798;12.174;2022-07-06T05:23:33;6.13;;;2.05;;
2698;SDS011;1359;51.798;12.174;2022-07-06T05:25:58;5.30;;;2.90;;
2698;SDS011;1359;51.798;12.174;2022-07-06T05:28:23;12.10;;;2.47;;
2698;SDS011;1359;51.798;12.174;2022-07-06T05:30:48;3.03;;;2.40;;
2698;SDS011;1359;51.798;12.174;2022-07-06T05:33:14;2.30;;;1.90;;
2698;SDS011;1359;51.798;12.174;2022-07-06T05:35:39;4.20;;;1.93;;
2698;SDS011;1359;51.798;12.174;2022-07-06T05:38:04;3.13;;;2.20;;
2698;SDS011;1359;51.798;12.174;2022-07-06T05:40:29;3.20;;;2.50;;
2698;SDS011;1359;51.798;12.174;2022-07-06T05:42:55;2.77;;;1.90;;
2698;SDS011;1359;51.798;12.174;2022-07-06T05:45:20;5.57;;;2.70;;
2698;SDS011;1359;51.798;12.174;2022-07-06T05:47:47;4.77;;;1.87;;
2698;SDS011;1359;51.798;12.174;2022-07-06T05:50:31;2.43;;;2.00;;
2698;SDS011;1359;51.798;12.174;2022-07-06T05:52:57;4.53;;;1.80;;
2698;SDS011;1359;51.798;12.174;2022-07-06T05:55:22;4.67;;;2.30;;
2698;SDS011;1359;51.798;12.174;2022-07-06T05:57:48;5.23;;;2.37;;
2698;SDS011;1359;51.798;12.174;2022-07-06T06:00:15;5.10;;;1.70;;
2698;SDS011;1359;51.798;12.174;2022-07-06T06:02:40;4.07;;;1.77;;
2698;SDS011;1359;51.798;12.174;2022-07-06T06:05:09;6.27;;;2.60;;
2698;SDS011;1359;51.798;12.174;2022-07-06T06:07:35;3.83;;;1.90;;
2698;SDS011;1359;51.798;12.174;2022-07-06T06:10:01;4.17;;;1.87;;
2698;SDS011;1359;51.798;12.174;2022-07-06T06:12:26;4.23;;;1.83;;
2698;SDS011;1359;51.798;12.174;2022-07-06T06:14:51;1.87;;;1.47;;
2698;SDS011;1359;51.798;12.174;2022-07-06T06:17:16;2.78;;;1.98;;
2698;SDS011;1359;51.798;12.174;2022-07-06T06:19:41;7.82;;;1.60;;
2698;SDS011;1359;51.798;12.174;2022-07-06T06:22:06;4.43;;;1.93;;
2698;SDS011;1359;51.798;12.174;2022-07-06T06:24:32;2.78;;;1.73;;
2698;SDS011;1359;51.798;12.174;2022-07-06T06:26:57;5.07;;;1.93;;
2698;SDS011;1359;51.798;12.174;2022-07-06T06:29:24;8.50;;;2.20;;
2698;SDS011;1359;51.798;12.174;2022-07-06T06:31:49;2.33;;;1.90;;
2698;SDS011;1359;51.798;12.174;2022-07-06T06:34:14;3.17;;;2.03;;
2698;SDS011;1359;51.798;12.174;2022-07-06T06:36:39;3.25;;;1.63;;
2698;SDS011;1359;51.798;12.174;2022-07-06T06:39:04;2.70;;;1.70;;
2698;SDS011;1359;51.798;12.174;2022-07-06T06:41:29;6.40;;;1.83;;
2698;SDS011;1359;51.798;12.174;2022-07-06T06:43:54;2.40;;;2.05;;
2698;SDS011;1359;51.798;12.174;2022-07-06T06:46:20;5.40;;;1.87;;
2698;SDS011;1359;51.798;12.174;2022-07-06T06:48:45;1.92;;;1.58;;
2698;SDS011;1359;51.798;12.174;2022-07-06T06:51:10;2.95;;;2.00;;
2698;SDS011;1359;51.798;12.174;2022-07-06T06:53:35;3.87;;;1.50;;
2698;SDS011;1359;51.798;12.174;2022-07-06T06:56:00;5.55;;;2.20;;
2698;SDS011;1359;51.798;12.174;2022-07-06T06:58:25;2.17;;;1.50;;
2698;SDS011;1359;51.798;12.174;2022-07-06T07:00:51;6.43;;;1.77;;
2698;SDS011;1359;51.798;12.174;2022-07-06T07:03:16;2.40;;;2.10;;
2698;SDS011;1359;51.798;12.174;2022-07-06T07:05:41;2.80;;;1.25;;
2698;SDS011;1359;51.798;12.174;2022-07-06T07:08:06;2.63;;;1.92;;
2698;SDS011;1359;51.798;12.174;2022-07-06T07:10:31;10.30;;;2.08;;
2698;SDS011;1359;51.798;12.174;2022-07-06T07:12:57;7.27;;;2.07;;
2698;SDS011;1359;51.798;12.174;2022-07-06T07:15:22;3.50;;;1.60;;
2698;SDS011;1359;51.798;12.174;2022-07-06T07:17:47;2.27;;;1.90;;
2698;SDS011;1359;51.798;12.174;2022-07-06T07:20:12;2.10;;;1.67;;
2698;SDS011;1359;51.798;12.174;2022-07-06T07:22:38;5.40;;;2.43;;
2698;SDS011;1359;51.798;12.174;2022-07-06T07:25:04;3.53;;;1.80;;
2698;SDS011;1359;51.798;12.174;2022-07-06T07:27:29;2.50;;;1.30;;
2698;SDS011;1359;51.798;12.174;2022-07-06T07:29:54;1.80;;;1.50;;
2698;SDS011;1359;51.798;12.174;2022-07-06T07:32:19;4.67;;;2.23;;
2698;SDS011;1359;51.798;12.174;2022-07-06T07:34:45;4.50;;;1.87;;
2698;SDS011;1359;51.798;12.174;2022-07-06T07:37:10;6.20;;;1.77;;
2698;SDS011;1359;51.798;12.174;2022-07-06T07:39:35;1.80;;;1.57;;
2698;SDS011;1359;51.798;12.174;2022-07-06T07:42:01;4.88;;;1.52;;
2698;SDS011;1359;51.798;12.174;2022-07-06T07:44:26;2.00;;;1.50;;
2698;SDS011;1359;51.798;12.174;2022-07-06T07:46:52;4.60;;;1.60;;
2698;SDS011;1359;51.798;12.174;2022-07-06T07:49:17;4.03;;;1.43;;
2698;SDS011;1359;51.798;12.174;2022-07-06T07:51:42;2.80;;;2.03;;
2698;SDS011;1359;51.798;12.174;2022-07-06T07:54:07;2.30;;;1.60;;
2698;SDS011;1359;51.798;12.174;2022-07-06T07:56:33;2.10;;;1.45;;
2698;SDS011;1359;51.798;12.174;2022-07-06T07:58:58;3.70;;;1.20;;
2698;SDS011;1359;51.798;12.174;2022-07-06T08:01:23;3.50;;;1.53;;
2698;SDS011;1359;51.798;12.174;2022-07-06T08:03:48;1.80;;;1.50;;
2698;SDS011;1359;51.798;12.174;2022-07-06T08:06:13;3.70;;;1.83;;
2698;SDS011;1359;51.798;12.174;2022-07-06T08:08:38;2.55;;;1.50;;
2698;SDS011;1359;51.798;12.174;2022-07-06T08:11:04;3.03;;;1.75;;
2698;SDS011;1359;51.798;12.174;2022-07-06T08:13:29;4.80;;;1.70;;
2698;SDS011;1359;51.798;12.174;2022-07-06T08:15:54;2.40;;;1.42;;
2698;SDS011;1359;51.798;12.174;2022-07-06T08:18:19;3.60;;;1.60;;
2698;SDS011;1359;51.798;12.174;2022-07-06T08:20:44;3.90;;;2.00;;
2698;SDS011;1359;51.798;12.174;2022-07-06T08:23:09;3.13;;;2.03;;
2698;SDS011;1359;51.798;12.174;2022-07-06T08:25:35;2.45;;;1.40;;
2698;SDS011;1359;51.798;12.174;2022-07-06T08:28:00;2.53;;;1.52;;
2698;SDS011;1359;51.798;12.174;2022-07-06T08:30:25;3.20;;;1.77;;
2698;SDS011;1359;51.798;12.174;2022-07-06T08:32:50;5.07;;;1.80;;
2698;SDS011;1359;51.798;12.174;2022-07-06T08:35:16;2.97;;;1.80;;
2698;SDS011;1359;51.798;12.174;2022-07-06T08:37:41;2.63;;;1.77;;
2698;SDS011;1359;51.798;12.174;2022-07-06T08:40:06;2.53;;;1.57;;
2698;SDS011;1359;51.798;12.174;2022-07-06T08:42:33;1.87;;;1.40;;
2698;SDS011;1359;51.798;12.174;2022-07-06T08:44:59;2.43;;;1.53;;
2698;SDS011;1359;51.798;12.174;2022-07-06T08:47:25;3.20;;;1.93;;
2698;SDS011;1359;51.798;12.174;2022-07-06T08:49:51;3.60;;;1.60;;
2698;SDS011;1359;51.798;12.174;2022-07-06T08:52:16;3.40;;;1.67;;
2698;SDS011;1359;51.798;12.174;2022-07-06T08:54:41;4.63;;;1.87;;
2698;SDS011;1359;51.798;12.174;2022-07-06T08:57:06;2.53;;;1.40;;
2698;SDS011;1359;51.798;12.174;2022-07-06T08:59:32;2.20;;;1.87;;
2698;SDS011;1359;51.798;12.174;2022-07-06T09:01:57;2.07;;;1.80;;
2698;SDS011;1359;51.798;12.174;2022-07-06T09:04:25;4.03;;;1.50;;
2698;SDS011;1359;51.798;12.174;2022-07-06T09:06:50;2.83;;;1.57;;
2698;SDS011;1359;51.798;12.174;2022-07-06T09:09:18;4.20;;;1.70;;
2698;SDS011;1359;51.798;12.174;2022-07-06T09:11:44;3.80;;;1.93;;
2698;SDS011;1359;51.798;12.174;2022-07-06T09:14:09;2.15;;;1.52;;
2698;SDS011;1359;51.798;12.174;2022-07-06T09:16:34;1.90;;;1.33;;
2698;SDS011;1359;51.798;12.174;2022-07-06T09:19:00;2.40;;;1.60;;
2698;SDS011;1359;51.798;12.174;2022-07-06T09:21:27;1.87;;;1.47;;
2698;SDS011;1359;51.798;12.174;2022-07-06T09:23:56;2.90;;;2.17;;
2698;SDS011;1359;51.798;12.174;2022-07-06T09:26:22;4.07;;;1.83;;
2698;SDS011;1359;51.798;12.174;2022-07-06T09:28:47;5.30;;;2.33;;
2698;SDS011;1359;51.798;12.174;2022-07-06T09:31:12;4.20;;;2.07;;
2698;SDS011;1359;51.798;12.174;2022-07-06T09:33:37;3.00;;;1.60;;
2698;SDS011;1359;51.798;12.174;2022-07-06T09:36:03;2.80;;;1.50;;
2698;SDS011;1359;51.798;12.174;2022-07-06T09:38:28;2.63;;;1.20;;
2698;SDS011;1359;51.798;12.174;2022-07-06T09:40:54;4.90;;;1.60;;
2698;SDS011;1359;51.798;12.174;2022-07-06T09:43:23;2.10;;;1.30;;
2698;SDS011;1359;51.798;12.174;2022-07-06T09:45:49;2.23;;;1.63;;
2698;SDS011;1359;51.798;12.174;2022-07-06T09:48:15;3.40;;;1.60;;
2698;SDS011;1359;51.798;12.174;2022-07-06T09:51:04;3.40;;;1.77;;
2698;SDS011;1359;51.798;12.174;2022-07-06T09:53:31;1.93;;;1.50;;
2698;SDS011;1359;51.798;12.174;2022-07-06T09:55:56;2.17;;;1.30;;
2698;SDS011;1359;51.798;12.174;2022-07-06T09:58:23;2.73;;;1.30;;
2698;SDS011;1359;51.798;12.174;2022-07-06T10:00:48;1.90;;;1.30;;
2698;SDS011;1359;51.798;12.174;2022-07-06T10:03:14;6.80;;;1.67;;
2698;SDS011;1359;51.798;12.174;2022-07-06T10:05:41;2.20;;;1.10;;
2698;SDS011;1359;51.798;12.174;2022-07-06T10:08:06;1.80;;;1.60;;
2698;SDS011;1359;51.798;12.174;2022-07-06T10:10:34;4.03;;;1.60;;
2698;SDS011;1359;51.798;12.174;2022-07-06T10:13:00;3.40;;;1.40;;
2698;SDS011;1359;51.798;12.174;2022-07-06T10:15:26;2.20;;;1.53;;
2698;SDS011;1359;51.798;12.174;2022-07-06T10:17:52;2.07;;;1.13;;
2698;SDS011;1359;51.798;12.174;2022-07-06T10:20:18;3.47;;;1.60;;
2698;SDS011;1359;51.798;12.174;2022-07-06T10:22:44;6.63;;;1.53;;
2698;SDS011;1359;51.798;12.174;2022-07-06T10:25:09;3.43;;;1.53;;
2698;SDS011;1359;51.798;12.174;2022-07-06T10:27:34;4.90;;;1.00;;
2698;SDS011;1359;51.798;12.174;2022-07-06T10:30:00;1.30;;;0.80;;
2698;SDS011;1359;51.798;12.174;2022-07-06T10:32:25;1.70;;;0.90;;
2698;SDS011;1359;51.798;12.174;2022-07-06T10:34:51;2.00;;;1.20;;
2698;SDS011;1359;51.798;12.174;2022-07-06T10:37:23;1.70;;;1.30;;
2698;SDS011;1359;51.798;12.174;2022-07-06T10:39:49;1.57;;;1.33;;
2698;SDS011;1359;51.798;12.174;2022-07-06T10:42:39;2.10;;;0.90;;
2698;SDS011;1359;51.798;12.174;2022-07-06T10:45:05;1.70;;;1.07;;
2698;SDS011;1359;51.798;12.174;2022-07-06T10:47:31;2.80;;;0.97;;
2698;SDS011;1359;51.798;12.174;2022-07-06T10:49:59;2.10;;;1.20;;
2698;SDS011;1359;51.798;12.174;2022-07-06T10:52:47;3.50;;;1.70;;
2698;SDS011;1359;51.798;12.174;2022-07-06T10:55:27;1.60;;;1.13;;
2698;SDS011;1359;51.798;12.174;2022-07-06T10:57:52;2.00;;;1.80;;
2698;SDS011;1359;51.798;12.174;2022-07-06T11:00:18;3.67;;;1.30;;
2698;SDS011;1359;51.798;12.174;2022-07-06T11:02:43;1.73;;;0.87;;
2698;SDS011;1359;51.798;12.174;2022-07-06T11:05:11;1.58;;;1.10;;
2698;SDS011;1359;51.798;12.174;2022-07-06T11:07:49;1.80;;;1.13;;
2698;SDS011;1359;51.798;12.174;2022-07-06T11:10:15;1.80;;;0.90;;
2698;SDS011;1359;51.798;12.174;2022-07-06T11:12:44;2.45;;;1.23;;
2698;SDS011;1359;51.798;12.174;2022-07-06T11:15:09;1.67;;;1.10;;
2698;SDS011;1359;51.798;12.174;2022-07-06T11:17:34;3.30;;;1.10;;
2698;SDS011;1359;51.798;12.174;2022-07-06T11:20:08;1.60;;;1.00;;
2698;SDS011;1359;51.798;12.174;2022-07-06T11:22:35;1.60;;;1.10;;
2698;SDS011;1359;51.798;12.174;2022-07-06T11:25:01;1.40;;;0.87;;
2698;SDS011;1359;51.798;12.174;2022-07-06T11:27:26;1.97;;;1.03;;
2698;SDS011;1359;51.798;12.174;2022-07-06T11:29:52;7.10;;;1.40;;
2698;SDS011;1359;51.798;12.174;2022-07-06T11:32:22;3.73;;;1.10;;
2698;SDS011;1359;51.798;12.174;2022-07-06T11:34:48;1.43;;;1.03;;
2698;SDS011;1359;51.798;12.174;2022-07-06T11:37:13;1.70;;;1.40;;
2698;SDS011;1359;51.798;12.174;2022-07-06T11:39:39;1.63;;;1.10;;
2698;SDS011;1359;51.798;12.174;2022-07-06T11:42:05;4.63;;;1.27;;
2698;SDS011;1359;51.798;12.174;2022-07-06T11:44:31;3.00;;;1.60;;
2698;SDS011;1359;51.798;12.174;2022-07-06T11:46:56;3.30;;;1.00;;
2698;SDS011;1359;51.798;12.174;2022-07-06T11:49:24;2.53;;;1.10;;
2698;SDS011;1359;51.798;12.174;2022-07-06T11:51:49;2.40;;;1.47;;
2698;SDS011;1359;51.798;12.174;2022-07-06T11:54:18;1.85;;;1.05;;
2698;SDS011;1359;51.798;12.174;2022-07-06T11:56:53;4.80;;;1.70;;
2698;SDS011;1359;51.798;12.174;2022-07-06T11:59:23;2.70;;;1.40;;
2698;SDS011;1359;51.798;12.174;2022-07-06T12:01:48;1.90;;;1.50;;
2698;SDS011;1359;51.798;12.174;2022-07-06T12:04:13;3.33;;;1.40;;
2698;SDS011;1359;51.798;12.174;2022-07-06T12:06:38;2.27;;;1.50;;
2698;SDS011;1359;51.798;12.174;2022-07-06T12:09:04;1.73;;;1.10;;
2698;SDS011;1359;51.798;12.174;2022-07-06T12:11:32;1.77;;;1.30;;
2698;SDS011;1359;51.798;12.174;2022-07-06T12:13:58;3.87;;;1.67;;
2698;SDS011;1359;51.798;12.174;2022-07-06T12:16:30;2.20;;;1.50;;
2698;SDS011;1359;51.798;12.174;2022-07-06T12:18:56;2.00;;;1.33;;
2698;SDS011;1359;51.798;12.174;2022-07-06T12:21:21;3.43;;;1.40;;
2698;SDS011;1359;51.798;12.174;2022-07-06T12:23:48;3.60;;;1.20;;
2698;SDS011;1359;51.798;12.174;2022-07-06T12:26:14;2.37;;;1.37;;
2698;SDS011;1359;51.798;12.174;2022-07-06T12:28:40;3.40;;;1.70;;
2698;SDS011;1359;51.798;12.174;2022-07-06T12:31:05;2.00;;;1.23;;
2698;SDS011;1359;51.798;12.174;2022-07-06T12:33:31;3.90;;;2.90;;
2698;SDS011;1359;51.798;12.174;2022-07-06T12:35:56;2.37;;;1.40;;
2698;SDS011;1359;51.798;12.174;2022-07-06T12:38:25;1.80;;;1.30;;
2698;SDS011;1359;51.798;12.174;2022-07-06T12:40:50;2.53;;;1.17;;
2698;SDS011;1359;51.798;12.174;2022-07-06T12:43:38;1.73;;;1.30;;
2698;SDS011;1359;51.798;12.174;2022-07-06T12:48:51;2.07;;;1.67;;
2698;SDS011;1359;51.798;12.174;2022-07-06T12:51:17;1.50;;;1.30;;
2698;SDS011;1359;51.798;12.174;2022-07-06T12:53:42;4.83;;;1.67;;
2698;SDS011;1359;51.798;12.174;2022-07-06T12:56:08;2.30;;;1.73;;
2698;SDS011;1359;51.798;12.174;2022-07-06T12:58:33;1.97;;;1.70;;
2698;SDS011;1359;51.798;12.174;2022-07-06T13:00:58;1.95;;;1.75;;
2698;SDS011;1359;51.798;12.174;2022-07-06T13:03:23;2.70;;;1.63;;
2698;SDS011;1359;51.798;12.174;2022-07-06T13:05:49;4.77;;;2.70;;
2698;SDS011;1359;51.798;12.174;2022-07-06T13:08:14;2.33;;;2.00;;
2698;SDS011;1359;51.798;12.174;2022-07-06T13:10:40;3.45;;;2.33;;
2698;SDS011;1359;51.798;12.174;2022-07-06T13:13:08;5.63;;;2.33;;
2698;SDS011;1359;51.798;12.174;2022-07-06T13:15:33;2.00;;;1.80;;
2698;SDS011;1359;51.798;12.174;2022-07-06T13:17:58;5.10;;;1.97;;
2698;SDS011;1359;51.798;12.174;2022-07-06T13:20:23;3.35;;;1.85;;
2698;SDS011;1359;51.798;12.174;2022-07-06T13:22:48;2.08;;;1.88;;
2698;SDS011;1359;51.798;12.174;2022-07-06T13:25:14;2.03;;;1.60;;
2698;SDS011;1359;51.798;12.174;2022-07-06T13:27:39;7.23;;;1.90;;
2698;SDS011;1359;51.798;12.174;2022-07-06T13:30:04;3.38;;;1.80;;
2698;SDS011;1359;51.798;12.174;2022-07-06T13:32:29;2.70;;;1.37;;
2698;SDS011;1359;51.798;12.174;2022-07-06T13:34:55;3.50;;;1.70;;
2698;SDS011;1359;51.798;12.174;2022-07-06T13:37:20;2.70;;;1.60;;
2698;SDS011;1359;51.798;12.174;2022-07-06T13:39:46;2.90;;;1.30;;
2698;SDS011;1359;51.798;12.174;2022-07-06T13:42:11;3.78;;;1.30;;
2698;SDS011;1359;51.798;12.174;2022-07-06T13:44:36;2.67;;;1.17;;
2698;SDS011;1359;51.798;12.174;2022-07-06T13:47:01;8.02;;;1.25;;
2698;SDS011;1359;51.798;12.174;2022-07-06T13:49:26;3.30;;;1.73;;
2698;SDS011;1359;51.798;12.174;2022-07-06T13:51:52;3.43;;;1.60;;
2698;SDS011;1359;51.798;12.174;2022-07-06T13:54:19;2.10;;;1.53;;
2698;SDS011;1359;51.798;12.174;2022-07-06T13:56:45;6.72;;;2.20;;
2698;SDS011;1359;51.798;12.174;2022-07-06T13:59:10;3.83;;;1.80;;
2698;SDS011;1359;51.798;12.174;2022-07-06T14:01:35;1.80;;;1.20;;
2698;SDS011;1359;51.798;12.174;2022-07-06T14:04:00;3.30;;;1.55;;
2698;SDS011;1359;51.798;12.174;2022-07-06T14:06:25;1.75;;;1.30;;
2698;SDS011;1359;51.798;12.174;2022-07-06T14:08:50;2.67;;;1.33;;
2698;SDS011;1359;51.798;12.174;2022-07-06T14:11:16;3.90;;;1.43;;
2698;SDS011;1359;51.798;12.174;2022-07-06T14:13:42;2.50;;;1.50;;
2698;SDS011;1359;51.798;12.174;2022-07-06T14:16:08;2.80;;;1.83;;
2698;SDS011;1359;51.798;12.174;2022-07-06T14:18:33;2.80;;;1.20;;
2698;SDS011;1359;51.798;12.174;2022-07-06T14:20:58;1.60;;;1.10;;
2698;SDS011;1359;51.798;12.174;2022-07-06T14:23:25;2.00;;;1.20;;
2698;SDS011;1359;51.798;12.174;2022-07-06T14:25:50;1.40;;;1.00;;
2698;SDS011;1359;51.798;12.174;2022-07-06T14:28:16;2.17;;;1.30;;
2698;SDS011;1359;51.798;12.174;2022-07-06T14:30:44;4.50;;;1.63;;
2698;SDS011;1359;51.798;12.174;2022-07-06T14:33:10;1.97;;;1.23;;
2698;SDS011;1359;51.798;12.174;2022-07-06T14:35:36;2.87;;;1.30;;
2698;SDS011;1359;51.798;12.174;2022-07-06T14:38:02;1.70;;;1.37;;
2698;SDS011;1359;51.798;12.174;2022-07-06T14:40:27;2.17;;;1.00;;
2698;SDS011;1359;51.798;12.174;2022-07-06T14:42:52;5.23;;;1.37;;
2698;SDS011;1359;51.798;12.174;2022-07-06T14:45:18;2.63;;;1.50;;
2698;SDS011;1359;51.798;12.174;2022-07-06T14:47:43;1.40;;;1.10;;
2698;SDS011;1359;51.798;12.174;2022-07-06T14:50:08;1.60;;;1.00;;
2698;SDS011;1359;51.798;12.174;2022-07-06T14:52:33;3.10;;;1.20;;
2698;SDS011;1359;51.798;12.174;2022-07-06T14:54:59;3.10;;;1.13;;